createdAt,value
2023-04-20T00:01:01.665Z,27.00
2023-04-20T00:03:28.853Z,27.10
2023-04-20T00:05:55.819Z,29.00
2023-04-20T00:08:22.566Z,26.50
2023-04-20T00:10:49.348Z,28.03
2023-04-20T00:13:16.304Z,27.67
2023-04-20T00:15:43.150Z,27.97
2023-04-20T00:18:10.028Z,27.77
2023-04-20T00:20:37.065Z,27.53
2023-04-20T00:23:04.252Z,27.63
2023-04-20T00:25:31.815Z,27.10
2023-04-20T00:27:58.789Z,27.63
2023-04-20T00:30:25.744Z,28.17
2023-04-20T00:32:52.595Z,27.93
2023-04-20T00:35:19.637Z,28.53
2023-04-20T00:37:46.456Z,27.77
2023-04-20T00:40:13.259Z,27.63
2023-04-20T00:42:42.948Z,28.20
2023-04-20T00:45:10.184Z,28.23
2023-04-20T00:47:37.333Z,27.63
2023-04-20T00:50:04.456Z,29.97
2023-04-20T00:52:31.402Z,28.33
2023-04-20T00:54:58.612Z,29.30
2023-04-20T00:57:25.872Z,29.50
2023-04-20T00:59:53.062Z,28.83
2023-04-20T01:02:22.938Z,29.20
2023-04-20T01:04:49.903Z,30.13
2023-04-20T01:07:16.709Z,27.77
2023-04-20T01:09:43.587Z,29.90
2023-04-20T01:12:11.271Z,29.73
2023-04-20T01:14:38.025Z,27.87
2023-04-20T01:17:06.395Z,29.63
2023-04-20T01:19:33.475Z,28.23
2023-04-20T01:22:02.417Z,29.40
2023-04-20T01:24:29.842Z,30.23
2023-04-20T01:26:59.015Z,30.87
2023-04-20T01:29:27.627Z,29.40
2023-04-20T01:31:54.427Z,30.57
2023-04-20T01:34:21.261Z,28.63
2023-04-20T01:36:48.122Z,28.10
2023-04-20T01:39:15.106Z,31.20
2023-04-20T01:41:42.481Z,30.77
2023-04-20T01:44:09.322Z,33.57
2023-04-20T01:46:39.635Z,32.13
2023-04-20T01:49:08.100Z,29.20
2023-04-20T01:51:35.543Z,29.20
2023-04-20T01:54:02.362Z,28.77
2023-04-20T01:56:29.289Z,29.47
2023-04-20T01:58:58.248Z,27.30
2023-04-20T02:01:25.195Z,28.07
2023-04-20T02:03:53.467Z,27.53
2023-04-20T02:06:21.278Z,29.23
2023-04-20T02:08:48.137Z,26.37
2023-04-20T02:11:15.077Z,27.67
2023-04-20T02:13:41.824Z,27.40
2023-04-20T02:16:09.113Z,26.50
2023-04-20T02:18:35.869Z,27.43
2023-04-20T02:21:03.610Z,27.73
2023-04-20T02:23:31.468Z,27.77
2023-04-20T02:25:58.656Z,28.40
2023-04-20T02:28:25.601Z,26.60
2023-04-20T02:30:52.483Z,26.77
2023-04-20T02:33:21.319Z,26.93
2023-04-20T02:35:48.227Z,25.93
2023-04-20T02:38:15.209Z,27.20
2023-04-20T02:40:41.935Z,27.90
2023-04-20T02:43:09.575Z,25.80
2023-04-20T02:45:37.230Z,25.17
2023-04-20T02:48:04.792Z,26.07
2023-04-20T02:50:32.079Z,25.40
2023-04-20T02:53:05.904Z,25.47
2023-04-20T02:55:35.207Z,25.07
2023-04-20T02:58:08.670Z,24.87
2023-04-20T03:01:04.440Z,24.40
2023-04-20T03:03:32.395Z,25.13
2023-04-20T03:05:59.633Z,24.33
2023-04-20T03:08:26.979Z,23.87
2023-04-20T03:10:55.852Z,22.57
2023-04-20T03:13:23.336Z,23.03
2023-04-20T03:15:57.381Z,22.80
2023-04-20T03:18:34.773Z,21.80
2023-04-20T03:21:01.650Z,22.30
2023-04-20T03:23:30.932Z,20.27
2023-04-20T03:26:01.796Z,19.73
2023-04-20T03:28:38.169Z,20.77
2023-04-20T03:31:06.759Z,19.13
2023-04-20T03:33:34.023Z,20.10
2023-04-20T03:36:01.832Z,20.00
2023-04-20T03:38:28.640Z,20.67
2023-04-20T03:40:55.446Z,21.60
2023-04-20T03:43:22.454Z,18.50
2023-04-20T03:45:49.800Z,21.27
2023-04-20T03:48:18.028Z,22.73
2023-04-20T03:50:44.847Z,20.90
2023-04-20T03:53:11.623Z,21.03
2023-04-20T03:55:38.774Z,20.20
2023-04-20T03:58:09.090Z,20.57
2023-04-20T04:00:51.674Z,21.10
2023-04-20T04:03:18.975Z,18.83
2023-04-20T04:05:47.354Z,19.07
2023-04-20T04:08:14.370Z,19.73
2023-04-20T04:10:41.495Z,19.83
2023-04-20T04:13:09.041Z,21.17
2023-04-20T04:15:36.710Z,19.57
2023-04-20T04:18:09.689Z,19.43
2023-04-20T04:20:37.874Z,19.60
2023-04-20T04:23:05.684Z,20.07
2023-04-20T04:26:03.163Z,19.83
2023-04-20T04:28:32.622Z,19.73
2023-04-20T04:31:12.464Z,19.93
2023-04-20T04:33:39.514Z,19.53
2023-04-20T04:36:15.467Z,19.90
2023-04-20T04:38:45.928Z,19.87
2023-04-20T04:41:13.282Z,39.77
2023-04-20T04:43:42.057Z,26.67
2023-04-20T04:46:21.829Z,24.90
2023-04-20T04:48:48.663Z,18.67
2023-04-20T04:51:15.880Z,19.13
2023-04-20T04:53:45.331Z,19.43
2023-04-20T04:56:13.434Z,18.80
2023-04-20T04:58:40.191Z,18.47
2023-04-20T05:01:07.180Z,20.10
2023-04-20T05:03:34.036Z,21.90
2023-04-20T05:06:00.986Z,19.40
2023-04-20T05:08:27.899Z,19.90
2023-04-20T05:10:54.739Z,24.90
2023-04-20T05:13:21.503Z,24.23
2023-04-20T05:15:48.331Z,21.47
2023-04-20T05:18:15.121Z,19.37
2023-04-20T05:20:41.887Z,17.80
2023-04-20T05:23:08.980Z,17.50
2023-04-20T05:25:35.811Z,18.30
2023-04-20T05:28:02.607Z,19.77
2023-04-20T05:30:29.426Z,19.73
2023-04-20T05:32:56.252Z,18.60
2023-04-20T05:35:23.130Z,19.10
2023-04-20T05:37:50.088Z,18.60
2023-04-20T05:40:16.940Z,18.93
2023-04-20T05:42:43.804Z,17.90
2023-04-20T05:45:11.041Z,20.17
2023-04-20T05:47:37.943Z,24.60
2023-04-20T05:50:06.639Z,21.50
2023-04-20T05:52:33.613Z,20.80
2023-04-20T05:55:00.797Z,17.87
2023-04-20T05:57:27.593Z,20.23
2023-04-20T05:59:56.115Z,22.80
2023-04-20T06:02:23.280Z,112.43
2023-04-20T06:04:50.346Z,29.17
2023-04-20T06:07:17.798Z,17.90
2023-04-20T06:09:44.695Z,18.90
2023-04-20T06:12:11.537Z,18.23
2023-04-20T06:14:38.421Z,19.60
2023-04-20T06:17:05.184Z,20.07
2023-04-20T06:19:32.291Z,18.27
2023-04-20T06:22:00.939Z,18.87
2023-04-20T06:24:28.248Z,18.60
2023-04-20T06:26:55.186Z,17.80
2023-04-20T06:29:22.011Z,18.10
2023-04-20T06:31:48.951Z,17.60
2023-04-20T06:34:16.419Z,18.13
2023-04-20T06:36:43.859Z,17.80
2023-04-20T06:39:13.571Z,17.67
2023-04-20T06:41:40.525Z,18.10
2023-04-20T06:44:07.551Z,17.83
2023-04-20T06:46:34.624Z,16.90
2023-04-20T06:49:01.561Z,17.77
2023-04-20T06:51:29.356Z,17.40
2023-04-20T06:53:56.723Z,19.17
2023-04-20T06:56:23.620Z,19.17
2023-04-20T06:58:50.539Z,16.93
2023-04-20T07:01:17.448Z,17.83
2023-04-20T07:03:46.832Z,29.87
2023-04-20T07:06:14.082Z,18.90
2023-04-20T07:08:41.329Z,18.90
2023-04-20T07:11:08.123Z,18.27
2023-04-20T07:13:35.135Z,19.40
2023-04-20T07:16:02.029Z,20.50
2023-04-20T07:18:28.946Z,20.23
2023-04-20T07:20:55.863Z,22.33
2023-04-20T07:23:22.686Z,22.37
2023-04-20T07:25:49.610Z,22.60
2023-04-20T07:28:16.448Z,21.63
2023-04-20T07:30:43.321Z,22.47
2023-04-20T07:33:11.629Z,21.87
2023-04-20T07:35:38.762Z,22.33
2023-04-20T07:38:05.672Z,22.30
2023-04-20T07:40:32.483Z,23.43
2023-04-20T07:42:59.873Z,23.03
2023-04-20T07:45:26.838Z,22.70
2023-04-20T07:47:55.307Z,21.43
2023-04-20T07:50:22.460Z,22.73
2023-04-20T07:52:49.412Z,22.10
2023-04-20T07:55:17.680Z,21.33
2023-04-20T07:57:45.110Z,20.80
2023-04-20T08:00:13.658Z,19.53
2023-04-20T08:02:41.074Z,18.43
2023-04-20T08:05:10.437Z,19.73
2023-04-20T08:07:37.829Z,18.90
2023-04-20T08:10:05.430Z,20.50
2023-04-20T08:12:32.366Z,20.10
2023-04-20T08:15:01.927Z,20.60
2023-04-20T08:17:29.161Z,22.00
2023-04-20T08:19:56.450Z,21.43
2023-04-20T08:22:27.212Z,20.23
2023-04-20T08:24:54.205Z,20.93
2023-04-20T08:27:21.390Z,21.17
2023-04-20T08:29:48.344Z,19.70
2023-04-20T08:32:15.702Z,19.13
2023-04-20T08:34:42.605Z,19.17
2023-04-20T08:37:09.468Z,19.63
2023-04-20T08:39:36.698Z,17.10
2023-04-20T08:42:03.505Z,17.07
2023-04-20T08:44:30.393Z,18.07
2023-04-20T08:46:57.298Z,16.87
2023-04-20T08:49:25.453Z,17.47
2023-04-20T08:51:53.014Z,17.70
2023-04-20T08:54:20.172Z,19.17
2023-04-20T08:56:47.994Z,19.60
2023-04-20T08:59:17.803Z,15.97
2023-04-20T09:01:45.005Z,16.70
2023-04-20T09:04:30.376Z,17.13
2023-04-20T09:06:57.318Z,16.53
2023-04-20T09:09:24.840Z,16.03
2023-04-20T09:12:03.196Z,16.37
2023-04-20T09:14:30.782Z,16.83
2023-04-20T09:17:02.305Z,16.93
2023-04-20T09:19:30.416Z,16.23
2023-04-20T09:21:59.004Z,17.37
2023-04-20T09:24:32.878Z,15.13
2023-04-20T09:27:02.161Z,16.07
2023-04-20T09:29:30.385Z,18.07
2023-04-20T09:31:57.339Z,16.77
2023-04-20T09:34:24.492Z,17.83
2023-04-20T09:36:52.129Z,17.23
2023-04-20T09:39:19.882Z,20.13
2023-04-20T09:41:47.231Z,17.93
2023-04-20T09:44:15.542Z,17.90
2023-04-20T09:46:43.261Z,18.07
2023-04-20T09:49:11.005Z,18.03
2023-04-20T09:51:39.029Z,19.37
2023-04-20T09:54:06.790Z,20.07
2023-04-20T09:56:34.988Z,17.63
2023-04-20T09:59:02.499Z,18.53
2023-04-20T10:01:30.489Z,17.97
2023-04-20T10:03:59.365Z,17.17
2023-04-20T10:06:31.275Z,16.40
2023-04-20T10:08:58.744Z,16.43
2023-04-20T10:11:44.515Z,15.97
2023-04-20T10:14:20.733Z,17.13
2023-04-20T10:16:59.168Z,14.87
2023-04-20T10:19:36.410Z,14.93
2023-04-20T10:22:03.290Z,15.73
2023-04-20T10:24:30.599Z,16.00
2023-04-20T10:26:58.249Z,15.33
2023-04-20T10:29:25.745Z,16.07
2023-04-20T10:31:53.533Z,15.40
2023-04-20T10:34:49.582Z,13.70
2023-04-20T10:37:16.365Z,13.37
2023-04-20T10:39:46.971Z,12.83
2023-04-20T10:42:15.483Z,13.63
2023-04-20T10:44:51.409Z,12.53
2023-04-20T10:47:18.957Z,11.67
2023-04-20T10:49:45.829Z,10.50
2023-04-20T10:52:12.648Z,11.83
2023-04-20T10:54:40.689Z,12.10
2023-04-20T10:57:07.552Z,11.20
2023-04-20T10:59:43.314Z,12.07
2023-04-20T11:02:12.931Z,12.33
2023-04-20T11:04:40.433Z,13.80
2023-04-20T11:07:08.102Z,12.73
2023-04-20T11:09:35.313Z,12.63
2023-04-20T11:12:04.203Z,13.90
2023-04-20T11:14:32.247Z,14.03
2023-04-20T11:16:59.279Z,12.03
2023-04-20T11:19:27.695Z,13.57
2023-04-20T11:21:54.717Z,13.73
2023-04-20T11:24:22.347Z,15.70
2023-04-20T11:26:54.572Z,15.50
2023-04-20T11:29:34.868Z,14.53
2023-04-20T11:32:09.017Z,15.97
2023-04-20T11:34:36.884Z,14.93
2023-04-20T11:37:07.606Z,15.80
2023-04-20T11:39:34.702Z,11.10
2023-04-20T11:42:02.203Z,12.17
2023-04-20T11:44:29.004Z,14.23
2023-04-20T11:47:00.008Z,13.00
2023-04-20T11:49:28.866Z,10.80
2023-04-20T11:51:55.905Z,11.27
2023-04-20T11:54:24.333Z,11.20
2023-04-20T11:56:51.517Z,11.37
2023-04-20T11:59:20.628Z,11.40
2023-04-20T12:01:48.287Z,11.67
2023-04-20T12:04:15.923Z,10.70
2023-04-20T12:06:43.132Z,9.33
2023-04-20T12:09:09.910Z,10.50
2023-04-20T12:11:36.677Z,9.40
2023-04-20T12:14:04.715Z,9.27
2023-04-20T12:16:31.973Z,10.80
2023-04-20T12:18:58.840Z,9.40
2023-04-20T12:21:25.812Z,9.57
2023-04-20T12:23:53.111Z,10.00
2023-04-20T12:26:19.998Z,10.67
2023-04-20T12:28:46.773Z,10.00
2023-04-20T12:31:13.606Z,9.60
2023-04-20T12:33:40.641Z,10.93
2023-04-20T12:36:07.507Z,8.37
2023-04-20T12:38:34.380Z,7.80
2023-04-20T12:41:01.174Z,8.57
2023-04-20T12:43:28.861Z,7.50
2023-04-20T12:45:55.588Z,7.23
2023-04-20T12:48:22.809Z,8.47
2023-04-20T12:50:50.907Z,8.77
2023-04-20T12:53:17.807Z,7.43
2023-04-20T12:55:44.672Z,6.97
2023-04-20T12:58:11.472Z,8.07
2023-04-20T13:00:38.267Z,7.57
2023-04-20T13:03:05.247Z,7.73
2023-04-20T13:05:32.250Z,7.70
2023-04-20T13:07:59.077Z,7.00
2023-04-20T13:10:25.930Z,6.53
2023-04-20T13:12:52.826Z,5.93
2023-04-20T13:15:31.807Z,6.80
2023-04-20T13:18:05.384Z,7.30
2023-04-20T13:20:32.327Z,7.80
2023-04-20T13:23:02.737Z,7.30
2023-04-20T13:25:32.846Z,7.13
2023-04-20T13:28:00.846Z,6.27
2023-04-20T13:30:27.680Z,6.17
2023-04-20T13:32:54.658Z,7.57
2023-04-20T13:35:21.514Z,6.87
2023-04-20T13:37:48.412Z,9.23
2023-04-20T13:40:15.234Z,7.53
2023-04-20T13:42:42.153Z,6.67
2023-04-20T13:45:10.425Z,7.23
2023-04-20T13:47:37.775Z,5.60
2023-04-20T13:50:04.891Z,5.90
2023-04-20T13:52:31.979Z,5.30
2023-04-20T13:54:59.061Z,6.53
2023-04-20T13:57:25.836Z,5.03
2023-04-20T13:59:53.233Z,5.33
2023-04-20T14:02:20.189Z,4.43
2023-04-20T14:04:47.373Z,4.07
2023-04-20T14:07:14.146Z,4.17
2023-04-20T14:09:40.968Z,4.07
2023-04-20T14:12:07.799Z,5.30
2023-04-20T14:14:34.691Z,4.70
2023-04-20T14:17:02.136Z,4.93
2023-04-20T14:19:29.019Z,4.80
2023-04-20T14:21:55.965Z,4.03
2023-04-20T14:24:22.828Z,6.57
2023-04-20T14:26:51.209Z,2.70
2023-04-20T14:29:18.068Z,2.43
2023-04-20T14:31:44.918Z,2.90
2023-04-20T14:34:13.342Z,2.50
2023-04-20T14:36:40.155Z,3.53
2023-04-20T14:39:07.033Z,6.13
2023-04-20T14:41:34.242Z,4.80
2023-04-20T14:44:01.178Z,3.60
2023-04-20T14:46:28.151Z,3.60
2023-04-20T14:48:54.888Z,3.17
2023-04-20T14:51:21.746Z,3.37
2023-04-20T14:53:48.677Z,3.10
2023-04-20T14:56:15.499Z,3.77
2023-04-20T14:58:42.644Z,3.70
2023-04-20T15:01:09.550Z,3.63
2023-04-20T15:06:03.788Z,3.40
2023-04-20T15:08:30.769Z,3.43
2023-04-20T15:10:57.639Z,3.90
2023-04-20T15:13:24.903Z,3.50
2023-04-20T15:15:54.189Z,3.40
2023-04-20T15:18:22.007Z,3.10
2023-04-20T15:20:50.548Z,3.70
2023-04-20T15:23:17.346Z,3.83
2023-04-20T15:25:44.243Z,4.33
2023-04-20T15:28:11.376Z,5.13
2023-04-20T15:30:38.190Z,5.07
2023-04-20T15:33:05.623Z,4.77
2023-04-20T15:35:33.291Z,4.80
2023-04-20T15:38:00.053Z,5.23
2023-04-20T15:40:27.687Z,4.67
2023-04-20T15:42:57.385Z,4.70
2023-04-20T15:45:24.480Z,5.87
2023-04-20T15:47:51.878Z,5.30
2023-04-20T15:50:18.887Z,4.97
2023-04-20T15:52:45.945Z,5.73
2023-04-20T15:55:12.813Z,5.40
2023-04-20T15:57:39.778Z,5.67
2023-04-20T16:00:07.951Z,5.13
2023-04-20T16:02:37.297Z,5.30
2023-04-20T16:05:04.622Z,5.77
2023-04-20T16:07:31.835Z,8.37
2023-04-20T16:09:58.776Z,5.20
2023-04-20T16:12:25.581Z,4.90
2023-04-20T16:14:53.811Z,4.63
2023-04-20T16:17:20.974Z,3.93
2023-04-20T16:19:47.744Z,4.23
2023-04-20T16:22:14.652Z,4.23
2023-04-20T16:24:41.497Z,4.17
2023-04-20T16:27:08.330Z,4.23
2023-04-20T16:29:35.202Z,4.13
2023-04-20T16:32:02.099Z,4.37
2023-04-20T16:34:30.675Z,4.07
2023-04-20T16:36:57.565Z,4.20
2023-04-20T16:39:24.456Z,4.27
2023-04-20T16:41:51.444Z,4.30
2023-04-20T16:44:18.591Z,4.20
2023-04-20T16:46:48.327Z,4.30
2023-04-20T16:49:15.118Z,4.90
2023-04-20T16:51:41.988Z,4.97
2023-04-20T16:54:09.478Z,4.93
2023-04-20T16:56:36.541Z,4.93
2023-04-20T16:59:03.500Z,5.53
2023-04-20T17:01:30.335Z,5.03
2023-04-20T17:03:57.443Z,4.30
2023-04-20T17:06:24.351Z,5.00
2023-04-20T17:08:51.218Z,5.60
2023-04-20T17:11:19.607Z,4.90
2023-04-20T17:13:46.430Z,5.50
2023-04-20T17:16:13.248Z,4.93
2023-04-20T17:18:41.910Z,5.73
2023-04-20T17:21:08.945Z,5.30
2023-04-20T17:23:36.117Z,5.30
2023-04-20T17:26:03.183Z,5.63
2023-04-20T17:28:30.174Z,5.67
2023-04-20T17:30:56.896Z,5.73
2023-04-20T17:33:23.741Z,4.87
2023-04-20T17:35:50.664Z,5.57
2023-04-20T17:38:17.421Z,6.30
2023-04-20T17:40:44.285Z,4.73
2023-04-20T17:43:11.311Z,7.57
2023-04-20T17:45:38.184Z,7.13
2023-04-20T17:48:05.258Z,7.40
2023-04-20T17:50:33.875Z,9.40
2023-04-20T17:53:06.880Z,8.63
2023-04-20T17:55:34.403Z,7.63
2023-04-20T17:58:01.676Z,5.73
2023-04-20T18:00:28.565Z,9.33
2023-04-20T18:02:55.715Z,8.30
2023-04-20T18:05:22.577Z,6.40
2023-04-20T18:07:49.438Z,6.97
2023-04-20T18:10:16.239Z,11.50
2023-04-20T18:12:43.677Z,11.97
2023-04-20T18:15:10.654Z,9.10
2023-04-20T18:17:37.521Z,7.47
2023-04-20T18:20:06.046Z,8.50
2023-04-20T18:22:33.081Z,8.40
2023-04-20T18:24:59.859Z,10.07
2023-04-20T18:27:26.724Z,7.97
2023-04-20T18:29:53.904Z,7.23
2023-04-20T18:32:21.064Z,6.07
2023-04-20T18:34:47.846Z,6.50
2023-04-20T18:37:15.217Z,7.20
2023-04-20T18:39:42.002Z,6.83
2023-04-20T18:42:08.907Z,6.80
2023-04-20T18:44:35.994Z,9.43
2023-04-20T18:47:03.044Z,10.90
2023-04-20T18:49:30.858Z,11.23
2023-04-20T18:51:57.837Z,9.70
2023-04-20T18:54:24.624Z,9.90
2023-04-20T18:56:51.662Z,9.23
2023-04-20T18:59:18.695Z,9.30
2023-04-20T19:01:45.639Z,10.20
2023-04-20T19:04:12.545Z,10.53
2023-04-20T19:06:39.469Z,10.67
2023-04-20T19:09:08.274Z,9.03
2023-04-20T19:11:35.498Z,11.23
2023-04-20T19:14:02.272Z,11.97
2023-04-20T19:16:30.252Z,13.50
2023-04-20T19:18:57.337Z,15.27
2023-04-20T19:21:24.215Z,15.17
2023-04-20T19:23:51.225Z,18.43
2023-04-20T19:26:18.029Z,21.93
2023-04-20T19:28:46.072Z,21.27
2023-04-20T19:31:13.439Z,20.03
2023-04-20T19:33:40.360Z,20.53
2023-04-20T19:36:08.373Z,19.87
2023-04-20T19:38:37.588Z,19.17
2023-04-20T19:41:05.530Z,19.80
2023-04-20T19:43:32.372Z,19.53
2023-04-20T19:45:59.252Z,19.80
2023-04-20T19:48:26.969Z,20.23
2023-04-20T19:50:56.428Z,19.23
2023-04-20T19:53:25.342Z,18.37
2023-04-20T19:55:52.127Z,18.43
2023-04-20T19:58:19.349Z,19.17
2023-04-20T20:00:46.266Z,17.60
2023-04-20T20:03:15.859Z,19.23
2023-04-20T20:05:43.667Z,19.87
2023-04-20T20:08:10.503Z,19.33
2023-04-20T20:10:37.294Z,21.17
2023-04-20T20:13:04.224Z,21.70
2023-04-20T20:15:31.185Z,21.07
2023-04-20T20:17:59.758Z,22.50
2023-04-20T20:20:32.464Z,20.77
2023-04-20T20:22:59.864Z,20.53
2023-04-20T20:25:26.698Z,22.80
2023-04-20T20:27:53.863Z,20.23
2023-04-20T20:30:20.811Z,21.00
2023-04-20T20:32:47.729Z,19.50
2023-04-20T20:35:14.710Z,17.90
2023-04-20T20:37:41.856Z,19.63
2023-04-20T20:40:15.044Z,18.93
2023-04-20T20:42:42.797Z,17.93
2023-04-20T20:45:14.022Z,18.20
2023-04-20T20:47:42.449Z,16.63
2023-04-20T20:50:09.618Z,16.00
2023-04-20T20:52:36.625Z,16.57
2023-04-20T20:55:04.442Z,17.43
2023-04-20T20:57:31.435Z,16.97
2023-04-20T20:59:58.308Z,16.40
2023-04-20T21:02:25.429Z,17.37
2023-04-20T21:04:52.575Z,15.90
2023-04-20T21:07:19.340Z,17.40
2023-04-20T21:09:46.502Z,17.43
2023-04-20T21:12:13.221Z,15.33
2023-04-20T21:14:40.155Z,17.80
2023-04-20T21:17:07.018Z,16.33
2023-04-20T21:19:33.808Z,17.47
2023-04-20T21:22:00.868Z,18.47
2023-04-20T21:24:27.776Z,19.67
2023-04-20T21:26:54.584Z,20.97
2023-04-20T21:29:21.466Z,19.00
2023-04-20T21:31:48.313Z,18.93
2023-04-20T21:34:15.212Z,18.53
2023-04-20T21:36:42.150Z,19.20
2023-04-20T21:39:08.909Z,18.50
2023-04-20T21:41:35.962Z,18.23
2023-04-20T21:44:03.264Z,17.70
2023-04-20T21:46:30.315Z,16.17
2023-04-20T21:48:57.110Z,16.93
2023-04-20T21:51:24.112Z,17.80
2023-04-20T21:53:50.887Z,16.57
2023-04-20T21:56:18.605Z,16.87
2023-04-20T21:58:45.447Z,17.70
2023-04-20T22:01:12.330Z,16.07
2023-04-20T22:03:39.546Z,16.90
2023-04-20T22:06:07.296Z,16.73
2023-04-20T22:08:34.297Z,18.53
2023-04-20T22:11:01.060Z,18.73
2023-04-20T22:13:27.954Z,16.67
2023-04-20T22:15:54.970Z,18.23
2023-04-20T22:18:22.313Z,17.70
2023-04-20T22:20:49.871Z,16.47
2023-04-20T22:23:16.699Z,16.73
2023-04-20T22:25:43.543Z,16.47
2023-04-20T22:28:11.152Z,17.50
2023-04-20T22:30:37.968Z,15.87
2023-04-20T22:33:04.900Z,17.77
2023-04-20T22:35:31.752Z,16.23
2023-04-20T22:37:59.522Z,18.27
2023-04-20T22:40:26.550Z,19.57
2023-04-20T22:42:53.497Z,19.53
2023-04-20T22:45:20.703Z,17.13
2023-04-20T22:47:47.530Z,17.57
2023-04-20T22:50:14.484Z,17.10
2023-04-20T22:52:42.127Z,16.67
2023-04-20T22:55:09.694Z,17.93
2023-04-20T22:57:36.732Z,18.30
2023-04-20T23:00:06.605Z,17.03
2023-04-20T23:02:34.198Z,18.20
2023-04-20T23:05:01.689Z,17.33
2023-04-20T23:07:28.445Z,16.73
2023-04-20T23:09:56.666Z,16.10
2023-04-20T23:12:23.661Z,16.40
2023-04-20T23:14:50.991Z,15.80
2023-04-20T23:17:18.202Z,17.23
2023-04-20T23:19:45.021Z,16.83
2023-04-20T23:22:11.752Z,17.60
2023-04-20T23:24:38.705Z,16.97
2023-04-20T23:27:05.803Z,17.57
2023-04-20T23:29:33.268Z,17.33
2023-04-20T23:32:00.934Z,16.47
2023-04-20T23:34:27.794Z,16.20
2023-04-20T23:36:54.753Z,17.60
2023-04-20T23:39:21.888Z,17.20
2023-04-20T23:41:48.670Z,15.83
2023-04-20T23:44:15.582Z,16.60
2023-04-20T23:46:42.607Z,16.37
2023-04-20T23:49:09.667Z,15.77
2023-04-20T23:51:36.703Z,16.40
2023-04-20T23:54:03.768Z,16.23
2023-04-20T23:56:30.573Z,16.60
2023-04-20T23:58:58.729Z,16.50
